Private Wetterstation Sandau
Wetterdaten: Woche 28.05.12 - 03.06.12 (KW22)
Datum Zeit Temp. A. Feuchte A. Luftdruck Regen Wind Richtung Taupunkt Windchill
28.05.2012 00:00 16,0 C 55 % 1017,9 hPa 0,0 l/m 3,4 km/h (1 Bft) O 7,0 C 16,0 C
28.05.2012 01:00 15,0 C 55 % 1017,5 hPa 0,0 l/m 3,2 km/h (1 Bft) O-NO 6,0 C 15,0 C
28.05.2012 02:00 14,4 C 57 % 1017,2 hPa 0,0 l/m 4,2 km/h (1 Bft) O 5,9 C 14,4 C
28.05.2012 03:00 14,1 C 59 % 1016,7 hPa 0,0 l/m 3,8 km/h (1 Bft) O-NO 6,3 C 14,1 C
28.05.2012 04:00 14,1 C 60 % 1016,4 hPa 0,0 l/m 2,7 km/h (1 Bft) O 6,5 C 14,1 C
28.05.2012 05:00 14,4 C 61 % 1016,5 hPa 0,0 l/m 1,6 km/h (1 Bft) O-NO 7,0 C 14,4 C
28.05.2012 06:00 16,9 C 55 % 1016,4 hPa 0,0 l/m 0,3 km/h (0 Bft) O-SO 7,7 C 16,9 C
28.05.2012 07:00 18,1 C 51 % 1016,1 hPa 0,0 l/m 1,3 km/h (1 Bft) NO 7,8 C 18,1 C
28.05.2012 08:00 19,0 C 49 % 1016,0 hPa 0,0 l/m 3,2 km/h (1 Bft) O-SO 7,9 C 19,0 C
28.05.2012 09:00 20,5 C 45 % 1016,0 hPa 0,0 l/m 3,1 km/h (1 Bft) O 8,1 C 20,5 C
28.05.2012 10:00 22,2 C 41 % 1015,6 hPa 0,0 l/m 2,8 km/h (1 Bft) W-SW 8,4 C 22,2 C
28.05.2012 11:00 23,5 C 38 % 1015,2 hPa 0,0 l/m 3,6 km/h (1 Bft) N-NO 8,4 C 23,5 C
28.05.2012 12:00 24,3 C 37 % 1014,8 hPa 0,0 l/m 4,0 km/h (1 Bft) W 8,5 C 24,3 C
28.05.2012 13:00 25,2 C 36 % 1014,2 hPa 0,0 l/m 2,9 km/h (1 Bft) W-NW 8,9 C 25,2 C
28.05.2012 14:00 26,2 C 34 % 1013,7 hPa 0,0 l/m 6,2 km/h (2 Bft) W 9,2 C 26,2 C
28.05.2012 15:00 26,6 C 33 % 1013,3 hPa 0,0 l/m 5,8 km/h (2 Bft) NO 8,8 C 26,6 C
28.05.2012 16:00 27,1 C 32 % 1012,7 hPa 0,0 l/m 4,2 km/h (1 Bft) NO 8,9 C 27,1 C
28.05.2012 17:00 27,4 C 33 % 1012,4 hPa 0,0 l/m 5,2 km/h (1 Bft) W 9,5 C 27,4 C
28.05.2012 18:00 26,7 C 34 % 1012,1 hPa 0,0 l/m 4,2 km/h (1 Bft) W-NW 9,4 C 26,7 C
28.05.2012 19:00 26,0 C 37 % 1012,0 hPa 0,0 l/m 2,2 km/h (1 Bft) NO 10,0 C 26,0 C
28.05.2012 20:00 25,3 C 41 % 1011,7 hPa 0,0 l/m 0,9 km/h (0 Bft) W-SW 11,1 C 25,3 C
28.05.2012 21:00 23,7 C 46 % 1011,7 hPa 0,0 l/m 0,5 km/h (0 Bft) W-SW 11,3 C 23,7 C
28.05.2012 22:00 21,9 C 50 % 1011,8 hPa 0,0 l/m 0,1 km/h (0 Bft) W 11,0 C 21,9 C
28.05.2012 23:00 20,5 C 54 % 1011,7 hPa 0,0 l/m 0,4 km/h (0 Bft) W-NW 10,8 C 20,5 C
29.05.2012 00:00 19,8 C 55 % 1011,6 hPa 0,0 l/m 1,0 km/h (0 Bft) W-SW 10,4 C 19,8 C
29.05.2012 01:00 18,7 C 55 % 1011,4 hPa 0,0 l/m 1,0 km/h (0 Bft) W-NW 9,6 C 18,7 C
29.05.2012 02:00 17,7 C 57 % 1011,2 hPa 0,0 l/m 1,2 km/h (1 Bft) W-NW 9,1 C 17,7 C
29.05.2012 03:00 16,9 C 60 % 1011,1 hPa 0,0 l/m 2,2 km/h (1 Bft) W-NW 9,1 C 16,9 C
29.05.2012 04:00 15,8 C 64 % 1011,3 hPa 0,0 l/m 3,5 km/h (1 Bft) W-NW 9,0 C 15,8 C
29.05.2012 05:00 15,2 C 67 % 1011,1 hPa 0,0 l/m 3,0 km/h (1 Bft) W-SW 9,1 C 15,2 C
29.05.2012 06:00 16,9 C 64 % 1011,4 hPa 0,0 l/m 4,8 km/h (1 Bft) W-SW 10,0 C 16,9 C
29.05.2012 07:00 16,5 C 64 % 1011,5 hPa 0,0 l/m 9,3 km/h (2 Bft) W-NW 9,7 C 16,5 C
29.05.2012 08:00 15,0 C 69 % 1011,8 hPa 0,0 l/m 9,0 km/h (2 Bft) W 9,4 C 15,0 C
29.05.2012 09:00 15,2 C 71 % 1011,8 hPa 0,0 l/m 9,8 km/h (2 Bft) W 10,0 C 15,2 C
29.05.2012 10:00 16,7 C 68 % 1011,7 hPa 0,0 l/m 11,4 km/h (2 Bft) W 10,6 C 16,7 C
29.05.2012 11:00 18,8 C 58 % 1011,7 hPa 0,0 l/m 15,0 km/h (3 Bft) W 10,4 C 18,8 C
29.05.2012 12:00 20,4 C 45 % 1011,6 hPa 0,0 l/m 16,0 km/h (3 Bft) W 8,2 C 20,4 C
29.05.2012 13:00 21,7 C 36 % 1011,6 hPa 0,0 l/m 9,8 km/h (2 Bft) W-NW 6,0 C 21,7 C
29.05.2012 14:00 21,2 C 33 % 1011,9 hPa 0,0 l/m 11,6 km/h (2 Bft) NO 4,1 C 21,2 C
29.05.2012 15:00 21,5 C 32 % 1012,1 hPa 0,0 l/m 10,7 km/h (2 Bft) NO 4,0 C 21,5 C
29.05.2012 16:00 22,5 C 33 % 1012,1 hPa 0,0 l/m 12,3 km/h (3 Bft) W-NW 5,3 C 22,5 C
29.05.2012 17:00 20,8 C 38 % 1012,4 hPa 0,0 l/m 9,8 km/h (2 Bft) N-NW 5,8 C 20,8 C
29.05.2012 18:00 19,1 C 44 % 1012,8 hPa 0,0 l/m 8,4 km/h (2 Bft) N-NO 6,4 C 19,1 C
29.05.2012 19:00 18,0 C 49 % 1013,2 hPa 0,0 l/m 8,1 km/h (2 Bft) N-NO 7,0 C 18,0 C
29.05.2012 20:00 16,8 C 51 % 1013,7 hPa 0,0 l/m 6,6 km/h (2 Bft) NO 6,6 C 16,8 C
29.05.2012 21:00 15,9 C 52 % 1014,3 hPa 0,0 l/m 2,8 km/h (1 Bft) N-NO 6,0 C 15,9 C
29.05.2012 22:00 15,1 C 54 % 1014,6 hPa 0,0 l/m 0,7 km/h (0 Bft) N-NO 5,8 C 15,1 C
29.05.2012 23:00 14,6 C 58 % 1014,8 hPa 0,0 l/m 0,1 km/h (0 Bft) NW 6,4 C 14,6 C
30.05.2012 00:00 13,8 C 61 % 1015,0 hPa 0,0 l/m 0,7 km/h (0 Bft) N-NO 6,3 C 13,8 C
30.05.2012 01:00 13,9 C 62 % 1015,0 hPa 0,0 l/m 0,3 km/h (0 Bft) W-NW 6,7 C 13,9 C
30.05.2012 02:00 13,4 C 65 % 1015,0 hPa 0,0 l/m 0,1 km/h (0 Bft) W 7,0 C 13,4 C
30.05.2012 03:00 12,7 C 66 % 1015,0 hPa 0,0 l/m 0,2 km/h (0 Bft) W 6,6 C 12,7 C
30.05.2012 04:00 12,6 C 67 % 1015,0 hPa 0,0 l/m 0,1 km/h (0 Bft) W 6,7 C 12,6 C
30.05.2012 05:00 12,3 C 68 % 1015,1 hPa 0,0 l/m 0,8 km/h (0 Bft) W-SW 6,6 C 12,3 C
30.05.2012 06:00 12,1 C 70 % 1015,3 hPa 0,0 l/m 2,7 km/h (1 Bft) W-NW 6,7 C 12,1 C
30.05.2012 07:00 12,7 C 72 % 1015,6 hPa 0,0 l/m 7,9 km/h (2 Bft) W 7,8 C 12,7 C
30.05.2012 08:00 13,6 C 70 % 1015,8 hPa 0,0 l/m 10,9 km/h (2 Bft) W 8,2 C 13,6 C
30.05.2012 09:00 14,4 C 64 % 1016,1 hPa 0,0 l/m 11,8 km/h (2 Bft) W-NW 7,7 C 14,4 C
30.05.2012 10:00 14,7 C 60 % 1016,7 hPa 0,0 l/m 10,8 km/h (2 Bft) W-NW 6,9 C 14,7 C
30.05.2012 11:00 14,4 C 59 % 1017,1 hPa 0,0 l/m 10,8 km/h (2 Bft) W-NW 6,5 C 14,4 C
30.05.2012 12:00 14,8 C 57 % 1017,6 hPa 0,0 l/m 9,7 km/h (2 Bft) W 6,5 C 14,8 C
30.05.2012 13:00 15,8 C 56 % 1017,4 hPa 0,0 l/m 9,5 km/h (2 Bft) W 7,0 C 15,8 C
30.05.2012 14:00 16,0 C 55 % 1017,5 hPa 0,0 l/m 7,5 km/h (2 Bft) W 6,9 C 16,0 C
30.05.2012 15:00 16,8 C 53 % 1017,5 hPa 0,0 l/m 9,1 km/h (2 Bft) W-NW 7,2 C 16,8 C
30.05.2012 16:00 16,7 C 50 % 1017,5 hPa 0,0 l/m 5,0 km/h (1 Bft) N 6,3 C 16,7 C
30.05.2012 17:00 16,8 C 49 % 1017,5 hPa 0,0 l/m 4,9 km/h (1 Bft) W-NW 6,1 C 16,8 C
30.05.2012 18:00 16,3 C 51 % 1017,7 hPa 0,0 l/m 5,8 km/h (2 Bft) N-NW 6,2 C 16,3 C
30.05.2012 19:00 16,4 C 51 % 1017,8 hPa 0,0 l/m 3,0 km/h (1 Bft) NW 6,2 C 16,4 C
30.05.2012 20:00 15,9 C 52 % 1018,2 hPa 0,0 l/m 5,1 km/h (1 Bft) NW 6,0 C 15,9 C
30.05.2012 21:00 14,9 C 55 % 1018,4 hPa 0,0 l/m 3,6 km/h (1 Bft) N 5,8 C 14,9 C
30.05.2012 22:00 13,8 C 59 % 1018,6 hPa 0,0 l/m 2,3 km/h (1 Bft) N-NO 5,8 C 13,8 C
30.05.2012 23:00 13,7 C 61 % 1018,7 hPa 0,0 l/m 1,9 km/h (1 Bft) W-NW 6,3 C 13,7 C
31.05.2012 00:00 13,7 C 62 % 1018,6 hPa 0,0 l/m 1,2 km/h (1 Bft) W 6,4 C 13,7 C
31.05.2012 01:00 13,7 C 62 % 1018,6 hPa 0,0 l/m 1,7 km/h (1 Bft) W-NW 6,5 C 13,7 C
31.05.2012 02:00 13,3 C 64 % 1018,4 hPa 0,0 l/m 0,3 km/h (0 Bft) W-NW 6,5 C 13,3 C
31.05.2012 03:00 13,1 C 66 % 1018,1 hPa 0,0 l/m 0,1 km/h (0 Bft) NW 6,8 C 13,1 C
31.05.2012 04:00 13,0 C 66 % 1018,0 hPa 0,0 l/m 0,8 km/h (0 Bft) W-NW 6,8 C 13,0 C
31.05.2012 05:00 12,5 C 67 % 1018,2 hPa 0,0 l/m 1,2 km/h (1 Bft) NO 6,6 C 12,5 C
31.05.2012 06:00 12,2 C 66 % 1018,4 hPa 0,0 l/m 0,6 km/h (0 Bft) N-NO 6,0 C 12,2 C
31.05.2012 07:00 12,4 C 65 % 1018,3 hPa 0,0 l/m 0,3 km/h (0 Bft) N-NO 5,9 C 12,4 C
31.05.2012 08:00 12,6 C 64 % 1018,2 hPa 0,0 l/m 1,9 km/h (1 Bft) N-NO 5,9 C 12,6 C
31.05.2012 09:00 13,5 C 62 % 1018,1 hPa 0,0 l/m 1,7 km/h (1 Bft) NO 6,4 C 13,5 C
31.05.2012 10:00 15,3 C 59 % 1017,9 hPa 0,0 l/m 3,2 km/h (1 Bft) W-SW 7,3 C 15,3 C
31.05.2012 11:00 17,2 C 56 % 1017,5 hPa 0,0 l/m 4,7 km/h (1 Bft) S-SW 8,3 C 17,2 C
31.05.2012 12:00 18,4 C 54 % 1017,3 hPa 0,0 l/m 5,7 km/h (1 Bft) SW 8,8 C 18,4 C
31.05.2012 13:00 18,8 C 54 % 1017,0 hPa 0,0 l/m 6,5 km/h (2 Bft) W-NW 9,2 C 18,8 C
31.05.2012 14:00 18,7 C 57 % 1016,6 hPa 0,0 l/m 7,0 km/h (2 Bft) W 9,9 C 18,7 C
31.05.2012 15:00 18,1 C 64 % 1015,6 hPa 0,0 l/m 6,9 km/h (2 Bft) W-SW 11,1 C 18,1 C
31.05.2012 16:00 18,0 C 68 % 1014,7 hPa 0,0 l/m 6,9 km/h (2 Bft) W-SW 12,0 C 18,0 C
31.05.2012 17:00 17,3 C 72 % 1013,8 hPa 0,5 l/m 4,2 km/h (1 Bft) S-SW 12,3 C 17,3 C
31.05.2012 18:00 17,0 C 75 % 1012,7 hPa 0,0 l/m 3,1 km/h (1 Bft) S-SW 12,6 C 17,0 C
31.05.2012 19:00 16,4 C 78 % 1011,8 hPa 1,6 l/m 2,3 km/h (1 Bft) S 12,5 C 16,4 C
31.05.2012 20:00 15,7 C 82 % 1010,7 hPa 6,7 l/m 2,5 km/h (1 Bft) S-SO 12,5 C 15,7 C
31.05.2012 21:00 15,1 C 84 % 1009,7 hPa 2,1 l/m 3,6 km/h (1 Bft) S-SO 12,5 C 15,1 C
31.05.2012 22:00 15,1 C 86 % 1008,5 hPa 4,1 l/m 6,8 km/h (2 Bft) S-SO 12,7 C 15,1 C
31.05.2012 23:00 14,9 C 86 % 1007,8 hPa 1,0 l/m 8,9 km/h (2 Bft) W-SW 12,6 C 14,9 C
01.06.2012 00:00 14,4 C 86 % 1007,2 hPa 0,5 l/m 8,2 km/h (2 Bft) W 12,1 C 14,4 C
01.06.2012 01:00 13,7 C 88 % 1007,3 hPa 1,6 l/m 8,1 km/h (2 Bft) NO 11,7 C 13,7 C
01.06.2012 02:00 13,1 C 89 % 1008,0 hPa 0,0 l/m 8,1 km/h (2 Bft) N-NW 11,3 C 13,1 C
01.06.2012 03:00 12,6 C 88 % 1008,7 hPa 0,0 l/m 8,0 km/h (2 Bft) N-NO 10,7 C 12,6 C
01.06.2012 04:00 12,0 C 88 % 1009,7 hPa 0,0 l/m 6,0 km/h (2 Bft) N 10,1 C 12,0 C
01.06.2012 05:00 11,9 C 88 % 1010,3 hPa 0,0 l/m 4,1 km/h (1 Bft) N 9,9 C 11,9 C
01.06.2012 06:00 11,6 C 86 % 1011,2 hPa 0,0 l/m 8,0 km/h (2 Bft) NW 9,3 C 11,6 C
01.06.2012 07:00 11,5 C 83 % 1011,8 hPa 0,0 l/m 7,2 km/h (2 Bft) W-NW 8,7 C 11,5 C
01.06.2012 08:00 11,6 C 78 % 1012,2 hPa 0,0 l/m 9,4 km/h (2 Bft) W-NW 8,0 C 11,6 C
01.06.2012 09:00 12,0 C 74 % 1012,6 hPa 0,0 l/m 10,7 km/h (2 Bft) W-NW 7,6 C 12,0 C
01.06.2012 10:00 13,1 C 70 % 1012,8 hPa 0,5 l/m 10,3 km/h (2 Bft) W-NW 7,7 C 13,1 C
01.06.2012 11:00 13,2 C 64 % 1013,0 hPa 0,0 l/m 13,3 km/h (3 Bft) W-NW 6,6 C 13,2 C
01.06.2012 12:00 13,7 C 62 % 1013,1 hPa 0,0 l/m 17,7 km/h (3 Bft) W-NW 6,5 C 13,7 C
01.06.2012 13:00 14,6 C 58 % 1013,0 hPa 0,0 l/m 16,5 km/h (3 Bft) NW 6,5 C 14,6 C
01.06.2012 14:00 14,8 C 55 % 1013,3 hPa 0,0 l/m 14,0 km/h (3 Bft) W 6,0 C 14,8 C
01.06.2012 15:00 15,2 C 52 % 1013,4 hPa 0,0 l/m 16,4 km/h (3 Bft) W-NW 5,5 C 15,2 C
01.06.2012 16:00 15,1 C 51 % 1013,5 hPa 0,0 l/m 13,9 km/h (3 Bft) NW 4,9 C 15,1 C
01.06.2012 17:00 15,1 C 49 % 1013,7 hPa 0,0 l/m 20,5 km/h (4 Bft) W-NW 4,5 C 15,1 C
01.06.2012 18:00 15,0 C 50 % 1013,9 hPa 0,0 l/m 16,8 km/h (3 Bft) W-NW 4,7 C 15,0 C
01.06.2012 19:00 14,2 C 51 % 1014,1 hPa 0,0 l/m 18,1 km/h (3 Bft) W-NW 4,0 C 14,2 C
01.06.2012 20:00 13,2 C 50 % 1014,5 hPa 0,0 l/m 13,0 km/h (3 Bft) W-NW 3,1 C 13,2 C
01.06.2012 21:00 11,4 C 54 % 1014,7 hPa 0,0 l/m 13,0 km/h (3 Bft) W-NW 2,4 C 11,4 C
01.06.2012 22:00 10,2 C 60 % 1014,9 hPa 0,0 l/m 9,1 km/h (2 Bft) W 2,8 C 9,7 C
01.06.2012 23:00 9,5 C 63 % 1014,8 hPa 0,0 l/m 8,8 km/h (2 Bft) W 2,9 C 8,4 C
02.06.2012 00:00 8,8 C 67 % 1014,9 hPa 0,0 l/m 7,9 km/h (2 Bft) W 2,9 C 7,7 C
02.06.2012 01:00 8,0 C 71 % 1014,8 hPa 0,0 l/m 9,1 km/h (2 Bft) W 3,1 C 6,5 C
02.06.2012 02:00 7,8 C 74 % 1014,7 hPa 0,0 l/m 5,3 km/h (1 Bft) W-SW 3,4 C 7,2 C
02.06.2012 03:00 7,5 C 75 % 1014,5 hPa 0,0 l/m 9,7 km/h (2 Bft) W 3,3 C 5,9 C
02.06.2012 04:00 7,3 C 76 % 1014,5 hPa 0,0 l/m 7,6 km/h (2 Bft) W-SW 3,3 C 6,1 C
02.06.2012 05:00 7,2 C 78 % 1014,6 hPa 0,0 l/m 6,0 km/h (2 Bft) W 3,6 C 6,3 C
02.06.2012 06:00 9,3 C 73 % 1014,8 hPa 0,0 l/m 8,1 km/h (2 Bft) W 4,6 C 8,1 C
02.06.2012 07:00 10,2 C 69 % 1014,9 hPa 0,0 l/m 11,5 km/h (2 Bft) W 4,8 C 9,6 C
02.06.2012 08:00 11,3 C 65 % 1015,2 hPa 0,0 l/m 13,5 km/h (3 Bft) W 4,9 C 11,3 C
02.06.2012 09:00 11,9 C 60 % 1015,2 hPa 0,0 l/m 8,9 km/h (2 Bft) W 4,4 C 11,9 C
02.06.2012 10:00 12,4 C 58 % 1015,2 hPa 0,0 l/m 14,3 km/h (3 Bft) W 4,2 C 12,4 C
02.06.2012 11:00 13,5 C 52 % 1015,1 hPa 0,0 l/m 14,2 km/h (3 Bft) W-NW 3,9 C 13,5 C
02.06.2012 12:00 13,3 C 55 % 1015,2 hPa 0,0 l/m 10,0 km/h (2 Bft) W-NW 4,5 C 13,3 C
02.06.2012 13:00 15,0 C 49 % 1014,8 hPa 0,0 l/m 13,3 km/h (3 Bft) W-NW 4,3 C 15,0 C
02.06.2012 14:00 15,2 C 48 % 1014,5 hPa 0,0 l/m 17,2 km/h (3 Bft) W 4,3 C 15,2 C
02.06.2012 15:00 16,2 C 46 % 1014,1 hPa 0,0 l/m 15,8 km/h (3 Bft) W-NW 4,5 C 16,2 C
02.06.2012 16:00 15,7 C 45 % 1014,1 hPa 0,0 l/m 12,6 km/h (3 Bft) NW 3,6 C 15,7 C
02.06.2012 17:00 14,8 C 49 % 1014,0 hPa 0,0 l/m 9,1 km/h (2 Bft) W 4,1 C 14,8 C
02.06.2012 18:00 14,8 C 50 % 1013,7 hPa 0,0 l/m 10,1 km/h (2 Bft) W-NW 4,4 C 14,8 C
02.06.2012 19:00 14,4 C 49 % 1013,7 hPa 0,0 l/m 8,3 km/h (2 Bft) W-NW 3,9 C 14,4 C
02.06.2012 20:00 14,0 C 52 % 1013,6 hPa 0,0 l/m 3,2 km/h (1 Bft) W-NW 4,3 C 14,0 C
02.06.2012 21:00 13,2 C 55 % 1013,4 hPa 0,0 l/m 2,0 km/h (1 Bft) W 4,4 C 13,2 C
02.06.2012 22:00 12,1 C 59 % 1013,5 hPa 0,0 l/m 1,1 km/h (1 Bft) W-NW 4,3 C 12,1 C
02.06.2012 23:00 11,0 C 62 % 1013,5 hPa 0,0 l/m 1,9 km/h (1 Bft) W-NW 3,9 C 11,0 C
03.06.2012 00:00 10,4 C 65 % 1013,5 hPa 0,0 l/m 4,9 km/h (1 Bft) W-NW 4,0 C 10,4 C
03.06.2012 01:00 9,9 C 68 % 1013,0 hPa 0,0 l/m 3,0 km/h (1 Bft) W-NW 4,1 C 9,8 C
03.06.2012 02:00 9,2 C 69 % 1012,9 hPa 0,0 l/m 3,4 km/h (1 Bft) W 3,8 C 9,2 C
03.06.2012 03:00 9,1 C 70 % 1012,5 hPa 0,0 l/m 2,4 km/h (1 Bft) W-SW 3,8 C 9,0 C
03.06.2012 04:00 9,0 C 70 % 1012,2 hPa 0,0 l/m 2,2 km/h (1 Bft) W 3,8 C 8,9 C
03.06.2012 05:00 8,5 C 72 % 1012,2 hPa 0,0 l/m 2,3 km/h (1 Bft) W 3,7 C 8,4 C
03.06.2012 06:00 10,1 C 69 % 1012,3 hPa 0,0 l/m 1,8 km/h (1 Bft) W-NW 4,6 C 10,1 C
03.06.2012 07:00 9,9 C 70 % 1012,6 hPa 0,0 l/m 4,9 km/h (1 Bft) W-SW 4,7 C 9,6 C
03.06.2012 08:00 11,2 C 68 % 1012,2 hPa 0,0 l/m 5,0 km/h (1 Bft) W-NW 5,4 C 11,2 C
03.06.2012 09:00 12,6 C 61 % 1011,4 hPa 0,0 l/m 3,8 km/h (1 Bft) W-NW 5,2 C 12,6 C
03.06.2012 10:00 13,4 C 56 % 1010,8 hPa 0,0 l/m 5,0 km/h (1 Bft) W-SW 4,9 C 13,4 C
03.06.2012 11:00 14,1 C 53 % 1010,1 hPa 0,0 l/m 2,8 km/h (1 Bft) S-SW 4,6 C 14,1 C
03.06.2012 12:00 15,0 C 50 % 1009,8 hPa 0,0 l/m 4,2 km/h (1 Bft) S-SW 4,7 C 15,0 C
03.06.2012 13:00 14,9 C 50 % 1009,3 hPa 0,0 l/m 6,2 km/h (2 Bft) SW 4,4 C 14,9 C
03.06.2012 14:00 14,2 C 57 % 1008,9 hPa 0,0 l/m 5,2 km/h (1 Bft) S-SW 5,8 C 14,2 C
03.06.2012 15:00 13,0 C 68 % 1008,5 hPa 1,6 l/m 4,1 km/h (1 Bft) S-SW 7,2 C 13,0 C
03.06.2012 16:00 12,4 C 73 % 1008,0 hPa 1,6 l/m 1,2 km/h (1 Bft) W-SW 7,7 C 12,4 C
03.06.2012 17:00 11,9 C 74 % 1007,4 hPa 0,5 l/m 0,7 km/h (0 Bft) SO 7,4 C 11,9 C
03.06.2012 18:00 11,7 C 75 % 1007,4 hPa 0,5 l/m 0,5 km/h (0 Bft) S-SW 7,4 C 11,7 C
03.06.2012 19:00 11,5 C 75 % 1007,5 hPa 0,5 l/m 0,0 km/h (0 Bft) N 7,2 C 11,5 C
03.06.2012 20:00 10,9 C 77 % 1007,8 hPa 0,0 l/m 0,9 km/h (0 Bft) W-NW 7,1 C 10,9 C
03.06.2012 21:00 10,5 C 79 % 1008,4 hPa 0,0 l/m 3,7 km/h (1 Bft) W-NW 7,1 C 10,5 C
03.06.2012 22:00 10,2 C 81 % 1008,9 hPa 0,0 l/m 4,9 km/h (1 Bft) W-NW 7,2 C 10,1 C
03.06.2012 23:00 9,8 C 82 % 1009,2 hPa 0,0 l/m 3,0 km/h (1 Bft) W-NW 6,8 C 9,7 C
Min-Datum _ 02.06.12 28.05.12 01.06.12 - 28.05.12 - 01.06.12 02.06.12
_ Min-Zeit 05:11 16:11 00:26 - 00:26 - 20:46 03:21
Minimum _ 6,9 C 31 % 1007,1 hPa - 0,0 km/h (0 Bft) - 2,2 C 3,8 C
Max-Datum _ 28.05.12 01.06.12 30.05.12 31.05.12 01.06.12 - 31.05.12 28.05.12
_ Max-Zeit 16:41 02:11 22:46 20:31 17:16 - 22:26 16:41
Maximum _ 27,7 C 89 % 1018,8 hPa 6,7 l/m 33,8 km/h
W-NW (5 Bft)
- 12,8 C 27,7 C
Durchschnitt _ 15,0 C 60 % 1013,7 hPa #23,3 l/m 6,1 km/h (2 Bft) W-NW 7,0 C 15,0 C
(c) by David Heller